createdAt,value
2022-08-26T00:00:25.633Z,10.50
2022-08-26T00:02:56.283Z,10.60
2022-08-26T00:05:27.178Z,10.80
2022-08-26T00:07:58.965Z,10.90
2022-08-26T00:10:30.616Z,11.00
2022-08-26T00:13:02.212Z,11.20
2022-08-26T00:15:32.612Z,11.30
2022-08-26T00:18:03.237Z,11.40
2022-08-26T00:20:47.422Z,11.50
2022-08-26T00:23:18.363Z,11.80
2022-08-26T00:25:53.267Z,11.90
2022-08-26T00:28:27.783Z,12.10
2022-08-26T00:30:59.490Z,12.30
2022-08-26T00:33:31.701Z,12.40
2022-08-26T00:36:06.084Z,12.50
2022-08-26T00:38:40.674Z,12.50
2022-08-26T00:41:13.880Z,12.60
2022-08-26T00:43:46.152Z,12.70
2022-08-26T00:46:26.405Z,12.70
2022-08-26T00:49:21.558Z,12.80
2022-08-26T00:51:57.875Z,12.90
2022-08-26T00:54:36.950Z,13.10
2022-08-26T00:57:16.605Z,13.20
2022-08-26T00:59:55.281Z,13.30
2022-08-26T01:02:26.320Z,13.30
2022-08-26T01:05:03.361Z,13.40
2022-08-26T01:07:38.742Z,13.40
2022-08-26T01:10:16.033Z,13.40
2022-08-26T01:12:55.779Z,13.40
2022-08-26T01:15:29.313Z,13.50
2022-08-26T01:18:08.811Z,13.70
2022-08-26T01:21:08.649Z,13.90
2022-08-26T01:23:57.529Z,14.10
2022-08-26T01:26:41.467Z,14.20
2022-08-26T01:29:20.476Z,14.30
2022-08-26T01:32:01.119Z,14.40
2022-08-26T01:34:39.384Z,14.50
2022-08-26T01:37:15.954Z,14.60
2022-08-26T01:39:48.197Z,14.70
2022-08-26T01:42:21.156Z,14.70
2022-08-26T01:44:56.455Z,14.70
2022-08-26T01:47:30.050Z,14.60
2022-08-26T01:50:04.544Z,14.60
2022-08-26T01:52:37.455Z,14.60
2022-08-26T01:55:09.714Z,14.60
2022-08-26T01:57:42.062Z,14.70
2022-08-26T02:00:21.228Z,14.80
2022-08-26T02:03:14.929Z,14.90
2022-08-26T02:05:52.404Z,14.90
2022-08-26T02:08:31.881Z,15.00
2022-08-26T02:11:04.355Z,15.10
2022-08-26T02:13:42.474Z,15.30
2022-08-26T02:16:15.784Z,15.10
2022-08-26T02:18:47.520Z,14.90
2022-08-26T02:21:18.458Z,14.80
2022-08-26T02:23:51.114Z,14.80
2022-08-26T02:26:27.471Z,14.90
2022-08-26T02:29:14.530Z,15.10
2022-08-26T02:31:47.494Z,15.30
2022-08-26T02:34:24.281Z,15.50
2022-08-26T02:37:05.805Z,15.60
2022-08-26T02:39:39.097Z,15.60
2022-08-26T02:42:10.706Z,15.60
2022-08-26T02:44:46.161Z,15.50
2022-08-26T02:47:18.842Z,15.40
2022-08-26T02:49:49.817Z,15.40
2022-08-26T02:52:20.588Z,15.50
2022-08-26T02:55:00.565Z,15.50
2022-08-26T02:57:33.227Z,15.50
2022-08-26T03:00:08.031Z,15.50
2022-08-26T03:02:39.063Z,15.40
2022-08-26T03:05:12.310Z,15.30
2022-08-26T03:07:44.478Z,15.10
2022-08-26T03:10:18.864Z,15.00
2022-08-26T03:12:52.673Z,14.90
2022-08-26T03:15:28.271Z,14.90
2022-08-26T03:18:05.231Z,14.80
2022-08-26T03:20:36.224Z,14.80
2022-08-26T03:23:07.273Z,14.80
2022-08-26T03:25:41.518Z,14.80
2022-08-26T03:28:12.164Z,14.80
2022-08-26T03:30:45.855Z,14.70
2022-08-26T03:33:18.868Z,14.70
2022-08-26T03:35:51.451Z,14.70
2022-08-26T03:38:30.410Z,14.80
2022-08-26T03:41:01.011Z,15.10
2022-08-26T03:43:33.378Z,15.30
2022-08-26T03:46:10.377Z,15.50
2022-08-26T03:48:43.468Z,15.60
2022-08-26T03:51:19.134Z,15.50
2022-08-26T03:53:51.762Z,15.50
2022-08-26T03:56:23.544Z,15.60
2022-08-26T03:58:54.706Z,15.70
2022-08-26T04:01:25.756Z,15.80
2022-08-26T04:04:03.281Z,15.90
2022-08-26T04:06:36.616Z,16.00
2022-08-26T04:09:10.795Z,16.00
2022-08-26T04:11:42.053Z,16.10
2022-08-26T04:14:20.228Z,16.10
2022-08-26T04:16:52.126Z,16.10
2022-08-26T04:19:23.735Z,16.00
2022-08-26T04:21:55.739Z,15.90
2022-08-26T04:24:31.051Z,15.90
2022-08-26T04:27:04.616Z,15.70
2022-08-26T04:29:41.520Z,15.70
2022-08-26T04:32:12.631Z,15.70
2022-08-26T04:34:44.982Z,15.60
2022-08-26T04:37:17.229Z,15.60
2022-08-26T04:39:48.119Z,15.50
2022-08-26T04:42:25.867Z,15.40
2022-08-26T04:44:57.426Z,15.40
2022-08-26T04:47:31.769Z,15.30
2022-08-26T04:50:03.143Z,15.30
2022-08-26T04:52:34.811Z,15.30
2022-08-26T04:55:06.706Z,15.20
2022-08-26T04:57:39.704Z,15.10
2022-08-26T05:00:15.906Z,15.00
2022-08-26T05:02:48.248Z,15.00
2022-08-26T05:05:22.695Z,14.90
2022-08-26T05:07:54.248Z,14.80
2022-08-26T05:10:29.534Z,14.80
2022-08-26T05:13:04.177Z,14.80
2022-08-26T05:15:41.973Z,14.70
2022-08-26T05:18:14.347Z,14.70
2022-08-26T05:20:50.904Z,14.70
2022-08-26T05:23:24.190Z,14.70
2022-08-26T05:25:59.482Z,14.70
2022-08-26T05:28:33.651Z,14.80
2022-08-26T05:31:13.320Z,15.00
2022-08-26T05:33:46.684Z,15.10
2022-08-26T05:36:21.369Z,15.20
2022-08-26T05:38:52.627Z,15.20
2022-08-26T05:41:27.083Z,15.20
2022-08-26T05:44:07.935Z,15.20
2022-08-26T05:46:40.035Z,15.20
2022-08-26T05:49:12.593Z,15.30
2022-08-26T05:51:47.618Z,15.20
2022-08-26T05:54:21.291Z,15.20
2022-08-26T05:56:54.111Z,15.10
2022-08-26T05:59:24.858Z,15.10
2022-08-26T06:01:59.137Z,15.00
2022-08-26T06:04:30.068Z,15.00
2022-08-26T06:07:01.110Z,15.00
2022-08-26T06:09:31.757Z,14.90
2022-08-26T06:12:03.505Z,14.90
2022-08-26T06:14:33.913Z,14.80
2022-08-26T06:17:04.129Z,14.70
2022-08-26T06:19:34.614Z,14.70
2022-08-26T06:22:25.302Z,14.60
2022-08-26T06:25:14.362Z,14.60
2022-08-26T06:27:44.979Z,14.50
2022-08-26T06:30:16.273Z,14.50
2022-08-26T06:32:47.812Z,14.40
2022-08-26T06:35:20.212Z,14.40
2022-08-26T06:37:51.316Z,14.30
2022-08-26T06:40:25.043Z,14.20
2022-08-26T06:42:55.357Z,14.10
2022-08-26T06:45:26.118Z,14.10
2022-08-26T06:47:56.421Z,14.00
2022-08-26T06:50:26.689Z,13.90
2022-08-26T06:52:57.815Z,13.90
2022-08-26T06:55:29.612Z,13.80
2022-08-26T06:58:00.264Z,13.70
2022-08-26T07:00:31.308Z,13.60
2022-08-26T07:03:01.836Z,13.40
2022-08-26T07:05:32.158Z,13.40
2022-08-26T07:08:04.326Z,13.30
2022-08-26T07:10:34.694Z,13.20
2022-08-26T07:13:08.953Z,13.10
2022-08-26T07:15:43.912Z,13.10
2022-08-26T07:18:15.266Z,13.00
2022-08-26T07:20:47.933Z,12.90
2022-08-26T07:23:18.629Z,12.90
2022-08-26T07:25:50.585Z,12.80
2022-08-26T07:28:23.198Z,12.70
2022-08-26T07:30:54.158Z,12.60
2022-08-26T07:33:24.666Z,12.50
2022-08-26T07:35:54.984Z,12.40
2022-08-26T07:38:28.572Z,12.30
2022-08-26T07:41:03.605Z,12.20
2022-08-26T07:43:35.652Z,12.10
2022-08-26T07:46:07.653Z,12.10
2022-08-26T07:48:38.956Z,12.00
2022-08-26T07:51:10.013Z,11.90
2022-08-26T07:53:41.572Z,11.80
2022-08-26T07:56:11.962Z,11.70
2022-08-26T07:58:47.680Z,11.60
2022-08-26T08:01:21.698Z,11.60
2022-08-26T08:03:53.254Z,11.60
2022-08-26T08:06:28.271Z,11.60
2022-08-26T08:08:59.529Z,11.60
2022-08-26T08:11:32.965Z,11.60
2022-08-26T08:14:03.537Z,11.50
2022-08-26T08:16:41.884Z,11.50
2022-08-26T08:19:17.604Z,11.50
2022-08-26T08:21:48.656Z,11.50
2022-08-26T08:24:19.378Z,11.30
2022-08-26T08:26:50.156Z,11.30
2022-08-26T08:29:21.157Z,11.30
2022-08-26T08:31:56.853Z,11.20
2022-08-26T08:34:30.969Z,11.20
2022-08-26T08:37:01.802Z,11.20
2022-08-26T08:39:34.711Z,11.20
2022-08-26T08:42:31.881Z,11.20
2022-08-26T08:45:25.111Z,11.10
2022-08-26T08:48:13.913Z,11.10
2022-08-26T08:51:15.577Z,11.00
2022-08-26T08:53:50.045Z,11.10
2022-08-26T08:56:54.637Z,11.10
2022-08-26T08:59:28.718Z,11.00
2022-08-26T09:02:12.757Z,10.90
2022-08-26T09:05:15.291Z,10.90
2022-08-26T09:08:15.684Z,10.90
2022-08-26T09:11:02.118Z,10.80
2022-08-26T09:13:33.533Z,10.80
2022-08-26T09:16:20.301Z,10.80
2022-08-26T09:18:58.818Z,10.80
2022-08-26T09:21:31.851Z,10.70
2022-08-26T09:24:02.707Z,10.70
2022-08-26T09:26:47.272Z,10.70
2022-08-26T09:29:29.496Z,10.70
2022-08-26T09:32:28.559Z,10.60
2022-08-26T09:35:10.657Z,10.60
2022-08-26T09:40:27.087Z,10.60
2022-08-26T09:43:15.600Z,10.50
2022-08-26T09:45:52.693Z,10.60
2022-08-26T09:48:41.157Z,10.50
2022-08-26T09:51:29.164Z,10.50
2022-08-26T09:54:02.456Z,10.40
2022-08-26T09:56:34.900Z,10.30
2022-08-26T09:59:07.264Z,10.30
2022-08-26T10:01:45.170Z,10.20
2022-08-26T10:04:23.316Z,10.10
2022-08-26T10:07:06.547Z,10.10
2022-08-26T10:09:45.061Z,10.00
2022-08-26T10:12:23.641Z,10.00
2022-08-26T10:15:01.404Z,9.90
2022-08-26T10:17:50.792Z,9.90
2022-08-26T10:20:31.348Z,9.80
2022-08-26T10:23:19.053Z,9.80
2022-08-26T10:26:02.232Z,9.70
2022-08-26T10:28:54.153Z,9.70
2022-08-26T10:31:40.978Z,9.60
2022-08-26T10:34:13.978Z,9.60
2022-08-26T10:37:24.452Z,9.60
2022-08-26T10:40:09.774Z,9.50
2022-08-26T10:42:57.164Z,9.50
2022-08-26T10:45:34.834Z,9.50
2022-08-26T10:48:26.541Z,9.40
2022-08-26T10:51:08.642Z,9.40
2022-08-26T10:54:04.904Z,9.40
2022-08-26T10:57:42.494Z,9.30
2022-08-26T11:01:02.494Z,9.30
2022-08-26T11:03:50.500Z,9.30
2022-08-26T11:06:33.035Z,9.20
2022-08-26T11:09:11.190Z,9.20
2022-08-26T11:11:47.057Z,9.10
2022-08-26T11:14:29.146Z,9.10
2022-08-26T11:17:01.917Z,9.10
2022-08-26T11:20:00.144Z,9.00
2022-08-26T11:22:48.032Z,9.00
2022-08-26T11:25:41.467Z,9.00
2022-08-26T11:28:13.454Z,8.90
2022-08-26T11:30:46.473Z,8.90
2022-08-26T11:33:49.259Z,8.90
2022-08-26T11:36:44.609Z,8.80
2022-08-26T11:39:59.942Z,8.80
2022-08-26T11:42:46.691Z,8.80
2022-08-26T11:45:25.133Z,8.80
2022-08-26T11:47:56.521Z,8.90
2022-08-26T11:50:29.908Z,8.80
2022-08-26T11:53:07.905Z,8.80
2022-08-26T11:55:44.739Z,8.80
2022-08-26T11:58:20.513Z,8.80
2022-08-26T12:01:11.423Z,8.70
2022-08-26T12:03:51.735Z,8.70
2022-08-26T12:06:30.043Z,8.60
2022-08-26T12:09:03.562Z,8.60
2022-08-26T12:11:39.210Z,8.50
2022-08-26T12:14:27.724Z,8.50
2022-08-26T12:17:22.473Z,8.40
2022-08-26T12:19:52.910Z,8.40
2022-08-26T12:22:29.221Z,8.40
2022-08-26T12:25:02.848Z,8.30
2022-08-26T12:27:43.748Z,8.20
2022-08-26T12:30:17.941Z,8.10
2022-08-26T12:32:58.766Z,8.10
2022-08-26T12:35:30.472Z,8.00
2022-08-26T12:38:04.529Z,7.90
2022-08-26T12:40:48.029Z,7.80
2022-08-26T12:43:43.161Z,7.80
2022-08-26T12:46:20.582Z,7.80
2022-08-26T12:48:52.290Z,7.70
2022-08-26T12:51:29.796Z,7.60
2022-08-26T12:54:01.199Z,7.60
2022-08-26T12:56:44.267Z,7.60
2022-08-26T12:59:28.889Z,7.70
2022-08-26T13:01:59.716Z,7.60
2022-08-26T13:04:48.127Z,7.50
2022-08-26T13:07:31.706Z,7.40
2022-08-26T13:10:02.875Z,7.40
2022-08-26T13:12:38.861Z,7.30
2022-08-26T13:15:10.012Z,7.20
2022-08-26T13:17:45.331Z,7.10
2022-08-26T13:20:17.627Z,7.10
2022-08-26T13:23:14.007Z,7.10
2022-08-26T13:25:45.417Z,7.10
2022-08-26T13:28:16.448Z,7.10
2022-08-26T13:30:51.337Z,7.00
2022-08-26T13:33:23.116Z,7.10
2022-08-26T13:36:05.296Z,6.90
2022-08-26T13:38:37.482Z,7.00
2022-08-26T13:41:08.078Z,6.90
2022-08-26T13:43:38.869Z,6.80
2022-08-26T13:46:10.089Z,6.70
2022-08-26T13:48:44.827Z,6.70
2022-08-26T13:51:16.311Z,6.60
2022-08-26T13:53:47.192Z,6.60
2022-08-26T13:56:18.172Z,6.50
2022-08-26T13:58:49.945Z,6.50
2022-08-26T14:01:22.004Z,6.50
2022-08-26T14:03:53.061Z,6.40
2022-08-26T14:06:23.792Z,6.40
2022-08-26T14:08:55.910Z,6.30
2022-08-26T14:11:27.401Z,6.30
2022-08-26T14:13:58.299Z,6.20
2022-08-26T14:16:36.133Z,6.20
2022-08-26T14:19:08.891Z,6.20
2022-08-26T14:21:42.507Z,6.10
2022-08-26T14:24:12.803Z,6.10
2022-08-26T14:26:43.938Z,6.00
2022-08-26T22:24:45.506Z,5.60
2022-08-26T22:27:16.929Z,5.80
2022-08-26T22:29:49.618Z,5.90
2022-08-26T22:32:20.376Z,6.00
2022-08-26T22:34:54.964Z,6.10
2022-08-26T22:37:25.444Z,6.20
2022-08-26T22:39:56.216Z,6.30
2022-08-26T22:42:26.571Z,6.40
2022-08-26T22:44:56.751Z,6.50
2022-08-26T22:47:30.924Z,6.60
2022-08-26T22:50:04.283Z,6.70
2022-08-26T22:52:36.721Z,6.90
2022-08-26T22:55:11.102Z,7.00
2022-08-26T22:57:44.954Z,7.10
2022-08-26T23:00:22.492Z,7.30
2022-08-26T23:03:03.557Z,7.50
2022-08-26T23:05:44.237Z,7.60
2022-08-26T23:08:17.657Z,7.70
2022-08-26T23:10:50.417Z,7.90
2022-08-26T23:13:21.319Z,8.10
2022-08-26T23:15:51.572Z,8.20
2022-08-26T23:18:22.039Z,8.40
2022-08-26T23:20:55.617Z,8.50
2022-08-26T23:23:30.570Z,8.70
2022-08-26T23:26:05.682Z,8.90
2022-08-26T23:28:39.719Z,9.00
2022-08-26T23:31:10.454Z,9.10
2022-08-26T23:34:02.802Z,9.30
2022-08-26T23:36:36.874Z,9.40
2022-08-26T23:39:10.692Z,9.50
2022-08-26T23:41:41.182Z,9.60
2022-08-26T23:44:14.672Z,9.70
2022-08-26T23:46:50.697Z,9.90
2022-08-26T23:49:21.003Z,10.00
2022-08-26T23:52:09.008Z,10.00
2022-08-26T23:54:40.330Z,10.10
2022-08-26T23:57:11.711Z,10.20
2022-08-26T23:59:42.388Z,10.30
